• Join FlightAware (Why Join?)
  • Login
  • US Flag 
01:03PM EDT


 

Airport Tracker/Info


-or-


 

Live Flight TrackerFlight Track Log ✈ UAL5881 ✈ 06-Aug-2013 ✈ KORD - KIND

Flight Track Log - Related Links

Times and Time Zones

All times are in EDT time to prevent confusion due to time zone crossing. See the UAL5881 flight status page for this flight to view local times or setup timezone preferences in your user account.

Time Position Orientation Groundspeed Altitude Reporting Facility
EDT Latitude Longitude Course Direction KTS MPH feet Rate Location/Type
08:50AM 41.9333 -87.9167 172° South 164 189 1,800  Level Chicago TRACON
08:51AM 41.8833 -87.9000 166° South 202 232 3,700 1,800 Climbing Chicago TRACON
08:52AM 41.8333 -87.8667 154° Southeast 252 290 5,500 1,860 Climbing Chicago TRACON
08:54AM 41.6565 -87.6673 157° South  Level Estimated
08:54AM 41.7350 -87.8189 160° South 276 318 8,200  Level Chicago Center
08:55AM 41.5751 -87.6078 156° South  Level Estimated
08:55AM 41.6606 -87.7789 158° South 287 330 10,600  Level Chicago Center
08:56AM 41.4833 -87.5898 172° South  Level FlightAware Approximate
08:56AM 41.5861 -87.7403 159° South 287 330 12,500  Level Chicago Center
08:57AM 41.5061 -87.6956 157° South 307 353 13,800 1,200 Climbing Chicago Center
08:58AM 41.4017 -87.6358 157° South 338 389 15,000 840 Climbing Chicago Center
08:59AM 41.3056 -87.5747 154° Southeast 373 429 15,600 720 Climbing Chicago Center
09:00AM 41.2042 -87.5117 155° Southeast 397 457 16,600 1,020 Climbing Chicago Center
09:01AM 41.1044 -87.4494 155° Southeast 398 458 17,800 1,020 Climbing Chicago Center
09:02AM 41.0000 -87.3853 155° Southeast 410 472 18,800 960 Climbing Chicago Center
09:03AM 40.8956 -87.3219 155° Southeast 415 478 19,900 960 Climbing Chicago Center
09:04AM 40.7675 -87.2436 155° Southeast 424 488 20,900 480 Climbing Chicago Center
09:05AM 40.6572 -87.1753 155° Southeast 440 506 21,000  Climbing Chicago Center
09:06AM 40.5408 -87.1053 155° Southeast 458 527 21,000 -1,440 Level Chicago Center
09:07AM 40.4161 -87.0283 155° Southeast 451 519 18,100 -2,940 Descending Chicago Center
09:08AM 40.3083 -86.9642 156° South 433 498 15,000 -2,460 Descending Chicago Center
09:09AM 40.2078 -86.9022 155° Southeast 407 468 13,100 -1,680 Descending Chicago Center
09:10AM 40.1222 -86.8142 142° Southeast 403 464 11,600 -1,200 Descending Chicago Center
09:11AM 40.0636 -86.7292 132° Southeast 394 453 11,000 -540 Descending Indianapolis Center
09:12AM 39.9953 -86.6289 132° Southeast 376 433 10,700 -840 Descending Indianapolis Center
09:13AM 39.9364 -86.5433 132° Southeast 327 376 9,300 -1,500 Descending Indianapolis Center
09:14AM 39.8800 -86.4622 132° Southeast 309 356 7,700 -1,140 Descending Indianapolis Center
09:15AM 39.8267 -86.3847 132° Southeast 295 339 7,000 -360 Descending Indianapolis Center
09:16AM 39.8467 -86.3025 72° East 257 296 7,000  Level Indianapolis Center
09:17AM 39.8894 -86.2300 52° Northeast 250 288 7,000 -360 Level Indianapolis Center
09:18AM 39.9425 -86.1492 49° Northeast 247 284 6,300 -1,080 Descending Indianapolis Center
09:19AM 39.9892 -86.0864 46° Northeast 243 280 4,800 -1,140 Descending Indianapolis Center
09:20AM 39.9539 -86.0400 135° Southeast 223 257 4,000 -420 Descending Indianapolis Center
09:21AM 39.9089 -86.0569 196° South 187 215 4,000  Level Indianapolis Center
09:22AM 39.8764 -86.1031 227° Southwest 180 207 4,000 -120 Level Indianapolis Center
09:23AM 39.8433 -86.1458 225° Southwest 173 199 3,800 -540 Descending Indianapolis Center
09:25AM 39.8058 -86.1939 225° Southwest 165 190 2,900 -780 Descending Indianapolis Center
09:26AM 39.7786 -86.2292 225° Southwest 153 176 2,200 -720 Descending Indianapolis Center
09:27AM 39.7525 -86.2622 224° Southwest 140 161 1,500 -720 Descending Indianapolis Center
09:28AM 39.7242 -86.2983 224° Southwest 135 155 800 -720 Descending Indianapolis Center